Time;durP1;ratioP1;P1;durP2;ratioP2;P2;SDS_P1;SDS_P2;PMS_P1;PMS_P2;Temp;Humidity;BMP_temperature;BMP_pressure;BME280_temperature;BME280_humidity;BME280_pressure;Samples;Min_cycle;Max_cycle;Signal;HPM_P1;HPM_P2
2022/07/13 00:00:36;;;;;;;3.70;1.30;;;;;;;;;;4995446;28;20093;-51
2022/07/13 00:03:03;;;;;;;5.25;1.30;;;;;;;;;;4995762;28;20057;-49
2022/07/13 00:05:28;;;;;;;3.20;1.20;;;;;;;;;;4995632;28;20015;-50
2022/07/13 00:07:54;;;;;;;3.53;1.25;;;;;;;;;;4995322;28;20022;-50
2022/07/13 00:10:19;;;;;;;2.83;1.13;;;;;;;;;;4995563;28;20121;-53
2022/07/13 00:12:45;;;;;;;7.68;1.30;;;;;;;;;;4995201;28;20096;-47
2022/07/13 00:15:10;;;;;;;6.03;1.20;;;;;;;;;;4995379;28;20062;-47
2022/07/13 00:17:37;;;;;;;1.63;1.10;;;;;;;;;;4995422;28;20113;-45
2022/07/13 00:20:03;;;;;;;3.50;1.10;;;;;;;;;;4995394;28;20031;-45
2022/07/13 00:22:28;;;;;;;3.95;1.35;;;;;;;;;;4995320;28;20073;-47
2022/07/13 00:24:54;;;;;;;4.10;1.30;;;;;;;;;;4994995;28;20026;-46
2022/07/13 00:27:19;;;;;;;2.20;1.10;;;;;;;;;;4995004;28;20033;-48
2022/07/13 00:29:44;;;;;;;1.75;1.30;;;;;;;;;;4994946;28;20030;-49
2022/07/13 00:32:10;;;;;;;4.40;1.13;;;;;;;;;;4994982;28;20030;-46
2022/07/13 00:34:35;;;;;;;3.33;1.48;;;;;;;;;;4995031;28;20038;-46
2022/07/13 00:37:01;;;;;;;4.03;1.30;;;;;;;;;;4994778;28;20026;-46
2022/07/13 00:39:26;;;;;;;3.95;1.40;;;;;;;;;;4994720;28;20021;-48
2022/07/13 00:41:52;;;;;;;2.53;1.40;;;;;;;;;;4994698;28;20038;-46
2022/07/13 00:44:17;;;;;;;1.33;1.23;;;;;;;;;;4994955;28;20065;-46
2022/07/13 00:46:51;;;;;;;5.75;1.20;;;;;;;;;;4994919;28;20367;-46
2022/07/13 00:49:17;;;;;;;1.98;1.20;;;;;;;;;;4994623;28;20142;-47
2022/07/13 00:51:43;;;;;;;4.65;2.00;;;;;;;;;;4994761;28;20427;-46
2022/07/13 00:54:09;;;;;;;6.50;1.33;;;;;;;;;;4994685;28;20031;-46
2022/07/13 00:56:35;;;;;;;2.67;1.30;;;;;;;;;;4994256;28;20137;-46
2022/07/13 00:59:02;;;;;;;3.70;1.40;;;;;;;;;;4994385;28;20578;-45
2022/07/13 01:01:27;;;;;;;2.17;1.58;;;;;;;;;;4994551;28;20026;-46
2022/07/13 01:03:53;;;;;;;2.33;1.30;;;;;;;;;;4993604;28;20364;-46
2022/07/13 01:06:18;;;;;;;5.55;1.20;;;;;;;;;;4994529;28;20074;-46
2022/07/13 01:08:45;;;;;;;2.47;1.90;;;;;;;;;;4994177;28;20022;-46
2022/07/13 01:11:12;;;;;;;1.50;1.40;;;;;;;;;;4994355;28;20434;-46
2022/07/13 01:13:39;;;;;;;3.85;1.50;;;;;;;;;;4994236;28;20029;-45
2022/07/13 01:16:08;;;;;;;2.42;1.40;;;;;;;;;;4994035;28;20033;-47
2022/07/13 01:18:33;;;;;;;2.25;1.30;;;;;;;;;;4993949;28;20500;-45
2022/07/13 01:21:00;;;;;;;4.95;1.70;;;;;;;;;;4993005;28;20023;-46
2022/07/13 01:23:26;;;;;;;1.92;1.30;;;;;;;;;;4993806;28;20030;-47
2022/07/13 01:25:56;;;;;;;2.70;1.55;;;;;;;;;;4993788;28;20061;-46
2022/07/13 01:28:22;;;;;;;3.90;1.60;;;;;;;;;;4994059;28;20033;-45
2022/07/13 01:30:48;;;;;;;3.20;1.40;;;;;;;;;;4993924;28;20033;-47
2022/07/13 01:33:13;;;;;;;2.75;1.30;;;;;;;;;;4993701;28;20026;-47
2022/07/13 01:35:39;;;;;;;2.53;1.80;;;;;;;;;;4993477;28;20030;-49
2022/07/13 01:38:04;;;;;;;2.95;1.58;;;;;;;;;;4993610;28;20034;-49
2022/07/13 01:40:30;;;;;;;3.38;1.60;;;;;;;;;;4993822;28;20030;-48
2022/07/13 01:42:55;;;;;;;3.00;1.38;;;;;;;;;;4993483;28;20466;-46
2022/07/13 01:45:22;;;;;;;2.42;1.60;;;;;;;;;;4993579;28;20030;-46
2022/07/13 01:47:50;;;;;;;2.30;1.58;;;;;;;;;;4993162;28;20049;-47
2022/07/13 01:50:20;;;;;;;3.05;1.50;;;;;;;;;;4993469;28;20035;-47
2022/07/13 01:52:45;;;;;;;1.80;1.42;;;;;;;;;;4993409;28;20058;-47
2022/07/13 01:55:12;;;;;;;4.78;1.65;;;;;;;;;;4993557;28;20072;-46
2022/07/13 01:57:38;;;;;;;4.40;2.20;;;;;;;;;;4993233;28;20054;-48
2022/07/13 02:00:16;;;;;;;6.18;1.48;;;;;;;;;;4993635;28;20386;-47
2022/07/13 02:02:42;;;;;;;1.90;1.48;;;;;;;;;;4993360;28;20065;-48
2022/07/13 02:05:12;;;;;;;1.50;1.40;;;;;;;;;;4993231;28;20061;-46
2022/07/13 02:07:39;;;;;;;1.65;1.55;;;;;;;;;;4993484;28;20434;-46
2022/07/13 02:10:07;;;;;;;5.20;1.50;;;;;;;;;;4993432;28;20033;-50
2022/07/13 02:12:33;;;;;;;3.42;1.42;;;;;;;;;;4993385;28;20035;-49
2022/07/13 02:14:58;;;;;;;2.97;1.50;;;;;;;;;;4992220;28;20026;-48
2022/07/13 02:17:24;;;;;;;1.95;1.65;;;;;;;;;;4993386;28;20417;-46
2022/07/13 02:19:50;;;;;;;3.80;1.40;;;;;;;;;;4993367;28;20037;-45
2022/07/13 02:22:15;;;;;;;2.42;1.58;;;;;;;;;;4993312;28;20486;-45
2022/07/13 02:24:41;;;;;;;2.92;1.60;;;;;;;;;;4992966;28;20493;-45
2022/07/13 02:27:06;;;;;;;2.42;1.40;;;;;;;;;;4992993;28;20022;-47
2022/07/13 02:29:32;;;;;;;3.60;1.80;;;;;;;;;;4992903;28;20022;-50
2022/07/13 02:31:57;;;;;;;7.55;1.60;;;;;;;;;;4993191;28;20077;-48
2022/07/13 02:34:27;;;;;;;3.20;1.80;;;;;;;;;;4993086;28;20085;-47
2022/07/13 02:36:56;;;;;;;6.30;1.52;;;;;;;;;;4992991;28;20027;-46
2022/07/13 02:39:22;;;;;;;5.50;1.98;;;;;;;;;;4992889;28;20074;-46
2022/07/13 02:41:47;;;;;;;1.50;1.40;;;;;;;;;;4993231;28;20022;-46
2022/07/13 02:44:13;;;;;;;4.38;1.60;;;;;;;;;;4993078;28;20037;-48
2022/07/13 02:46:38;;;;;;;4.07;1.90;;;;;;;;;;4992894;28;20463;-49
2022/07/13 02:49:04;;;;;;;2.90;1.50;;;;;;;;;;4993005;28;20022;-48
2022/07/13 02:51:29;;;;;;;4.88;1.70;;;;;;;;;;4992980;28;20065;-47
2022/07/13 02:53:55;;;;;;;3.10;1.50;;;;;;;;;;4992563;28;20026;-48
2022/07/13 02:56:20;;;;;;;2.33;1.48;;;;;;;;;;4991149;28;20051;-46
2022/07/13 02:58:45;;;;;;;1.85;1.65;;;;;;;;;;4992191;28;20023;-46
2022/07/13 03:01:11;;;;;;;2.50;1.45;;;;;;;;;;4992456;28;20030;-45
2022/07/13 03:03:37;;;;;;;4.43;1.50;;;;;;;;;;4992582;28;20390;-46
2022/07/13 03:06:02;;;;;;;1.58;1.48;;;;;;;;;;4992905;28;20039;-46
2022/07/13 03:08:28;;;;;;;2.60;1.50;;;;;;;;;;4992146;28;20089;-48
2022/07/13 03:10:54;;;;;;;2.58;1.52;;;;;;;;;;4990891;28;20046;-47
2022/07/13 03:13:19;;;;;;;3.30;1.60;;;;;;;;;;4990676;28;20109;-47
2022/07/13 03:15:45;;;;;;;4.03;1.90;;;;;;;;;;4990611;28;20037;-47
2022/07/13 03:18:10;;;;;;;1.75;1.60;;;;;;;;;;4990985;28;20022;-46
2022/07/13 03:20:36;;;;;;;3.97;1.77;;;;;;;;;;4990719;28;20438;-48
2022/07/13 03:23:01;;;;;;;2.33;1.90;;;;;;;;;;4990762;28;20374;-48
2022/07/13 03:25:27;;;;;;;3.25;1.63;;;;;;;;;;4992846;28;20058;-51
2022/07/13 03:27:52;;;;;;;3.95;1.65;;;;;;;;;;4996076;28;20109;-54
2022/07/13 03:30:18;;;;;;;6.78;1.98;;;;;;;;;;4996279;28;20065;-47
2022/07/13 03:32:44;;;;;;;3.80;1.60;;;;;;;;;;4996223;28;20124;-51
2022/07/13 03:35:10;;;;;;;6.60;1.67;;;;;;;;;;4995849;28;20486;-48
2022/07/13 03:37:36;;;;;;;5.10;1.60;;;;;;;;;;4996190;28;20070;-47
2022/07/13 03:40:02;;;;;;;1.77;1.33;;;;;;;;;;4995321;28;20399;-47
2022/07/13 03:42:28;;;;;;;4.53;1.30;;;;;;;;;;4995816;28;20054;-47
2022/07/13 03:44:53;;;;;;;4.03;1.35;;;;;;;;;;4995837;28;20453;-48
2022/07/13 03:47:18;;;;;;;1.50;1.40;;;;;;;;;;4995991;28;20026;-47
2022/07/13 03:49:44;;;;;;;4.57;1.50;;;;;;;;;;4995946;28;20026;-48
2022/07/13 03:52:09;;;;;;;5.05;1.40;;;;;;;;;;4995617;28;20027;-47
2022/07/13 03:54:35;;;;;;;1.30;1.20;;;;;;;;;;4995796;28;20034;-47
2022/07/13 03:57:00;;;;;;;1.92;1.40;;;;;;;;;;4995452;28;20057;-48
2022/07/13 03:59:26;;;;;;;2.65;1.40;;;;;;;;;;4995579;28;20544;-47
2022/07/13 04:01:51;;;;;;;1.30;1.20;;;;;;;;;;4995458;28;20026;-49
2022/07/13 04:04:17;;;;;;;3.10;1.30;;;;;;;;;;4995710;28;20045;-45
2022/07/13 04:06:42;;;;;;;4.00;1.33;;;;;;;;;;4995626;28;20467;-48
2022/07/13 04:09:08;;;;;;;2.83;1.10;;;;;;;;;;4995332;28;20467;-48
2022/07/13 04:11:33;;;;;;;3.55;1.13;;;;;;;;;;4995614;28;20508;-46
2022/07/13 04:13:58;;;;;;;2.75;1.20;;;;;;;;;;4995085;28;20026;-46
2022/07/13 04:16:24;;;;;;;1.33;1.08;;;;;;;;;;4995254;28;20113;-47
2022/07/13 04:18:49;;;;;;;1.42;1.10;;;;;;;;;;4995231;28;20027;-49
2022/07/13 04:21:15;;;;;;;5.53;1.10;;;;;;;;;;4995132;28;20046;-47
2022/07/13 04:23:41;;;;;;;5.50;1.40;;;;;;;;;;4995129;28;20068;-48
2022/07/13 04:26:06;;;;;;;3.42;1.20;;;;;;;;;;4995343;28;20053;-46
2022/07/13 04:28:32;;;;;;;3.80;1.30;;;;;;;;;;4995035;28;20022;-47
2022/07/13 04:30:58;;;;;;;1.98;1.20;;;;;;;;;;4995234;28;20022;-50
2022/07/13 04:33:23;;;;;;;1.85;1.10;;;;;;;;;;4995153;28;20109;-46
2022/07/13 04:35:48;;;;;;;8.80;1.33;;;;;;;;;;4995024;28;20038;-46
2022/07/13 04:38:14;;;;;;;1.75;1.08;;;;;;;;;;4994161;28;20027;-49
2022/07/13 04:40:40;;;;;;;3.10;1.30;;;;;;;;;;4994967;28;20428;-50
2022/07/13 04:43:05;;;;;;;2.58;1.10;;;;;;;;;;4994770;28;20050;-48
2022/07/13 04:45:32;;;;;;;5.88;1.05;;;;;;;;;;4994905;28;20038;-50
2022/07/13 04:47:58;;;;;;;1.10;1.00;;;;;;;;;;4994578;28;20033;-50
2022/07/13 04:50:24;;;;;;;4.30;1.35;;;;;;;;;;4994434;28;20393;-47
2022/07/13 04:52:50;;;;;;;2.08;1.00;;;;;;;;;;4994346;28;20037;-46
2022/07/13 04:55:16;;;;;;;1.27;1.02;;;;;;;;;;4994348;28;20034;-45
2022/07/13 04:57:41;;;;;;;5.00;1.40;;;;;;;;;;4994612;28;20038;-46
2022/07/13 05:00:08;;;;;;;6.90;1.13;;;;;;;;;;4994265;28;20558;-50
2022/07/13 05:02:34;;;;;;;4.85;1.10;;;;;;;;;;4994436;28;20022;-49
2022/07/13 05:05:00;;;;;;;1.42;1.00;;;;;;;;;;4994248;28;20493;-51
2022/07/13 05:07:26;;;;;;;2.03;1.33;;;;;;;;;;4994157;28;20104;-52
2022/07/13 05:09:51;;;;;;;2.83;1.25;;;;;;;;;;4994102;28;20077;-50
2022/07/13 05:12:17;;;;;;;2.38;1.00;;;;;;;;;;4994112;28;20118;-52
2022/07/13 05:14:42;;;;;;;1.73;1.58;;;;;;;;;;4993995;28;20068;-45
2022/07/13 05:17:08;;;;;;;7.03;1.30;;;;;;;;;;4994060;28;20026;-47
2022/07/13 05:19:33;;;;;;;1.85;1.10;;;;;;;;;;4994002;28;20026;-46
2022/07/13 05:21:59;;;;;;;7.82;1.42;;;;;;;;;;4993929;28;20033;-46
2022/07/13 05:24:24;;;;;;;1.45;1.02;;;;;;;;;;4994220;28;20081;-46
2022/07/13 05:26:49;;;;;;;4.40;1.40;;;;;;;;;;4993859;28;20022;-46
2022/07/13 05:29:15;;;;;;;1.73;1.00;;;;;;;;;;4994105;28;20026;-50
2022/07/13 05:31:40;;;;;;;3.28;1.00;;;;;;;;;;4994066;28;20077;-47
2022/07/13 05:34:06;;;;;;;4.80;1.30;;;;;;;;;;4993868;28;20026;-51
2022/07/13 05:36:32;;;;;;;4.85;1.00;;;;;;;;;;4993934;28;20433;-51
2022/07/13 05:38:57;;;;;;;3.78;2.63;;;;;;;;;;4993575;28;20485;-47
2022/07/13 05:41:23;;;;;;;2.10;1.00;;;;;;;;;;4993465;28;20058;-49
2022/07/13 05:43:48;;;;;;;3.20;0.80;;;;;;;;;;4992600;28;20033;-51
2022/07/13 05:46:14;;;;;;;3.38;1.00;;;;;;;;;;4993060;28;20069;-47
2022/07/13 05:48:39;;;;;;;4.65;0.95;;;;;;;;;;4992768;28;20100;-47
2022/07/13 05:51:05;;;;;;;0.80;0.80;;;;;;;;;;4993263;28;20069;-51
2022/07/13 05:53:30;;;;;;;5.38;1.00;;;;;;;;;;4992880;28;20029;-46
2022/07/13 05:55:56;;;;;;;0.93;0.88;;;;;;;;;;4992723;28;20057;-48
2022/07/13 05:58:22;;;;;;;1.73;0.82;;;;;;;;;;4993383;28;20036;-47
2022/07/13 06:00:48;;;;;;;6.20;1.20;;;;;;;;;;4975829;28;20026;-52
2022/07/13 06:03:13;;;;;;;1.73;1.20;;;;;;;;;;4993603;28;20459;-51
2022/07/13 06:05:39;;;;;;;1.85;0.80;;;;;;;;;;4993332;28;20026;-48
2022/07/13 06:08:04;;;;;;;0.88;0.82;;;;;;;;;;4993222;28;20474;-51
2022/07/13 06:10:30;;;;;;;1.52;0.90;;;;;;;;;;4993231;28;20026;-50
2022/07/13 06:12:56;;;;;;;28.23;2.30;;;;;;;;;;4993183;28;20061;-51
2022/07/13 06:15:21;;;;;;;1.58;0.90;;;;;;;;;;4993100;28;20045;-47
2022/07/13 06:17:47;;;;;;;1.70;0.88;;;;;;;;;;4993398;28;20037;-46
2022/07/13 06:20:12;;;;;;;4.18;0.88;;;;;;;;;;4993294;28;20517;-48
2022/07/13 06:22:37;;;;;;;1.50;0.90;;;;;;;;;;4993061;28;20382;-47
2022/07/13 06:25:03;;;;;;;1.95;0.90;;;;;;;;;;4993005;28;20027;-51
2022/07/13 06:27:30;;;;;;;1.17;0.80;;;;;;;;;;4992836;28;20031;-48
2022/07/13 06:29:55;;;;;;;1.90;1.00;;;;;;;;;;4992982;28;20026;-46
2022/07/13 06:32:21;;;;;;;2.58;1.00;;;;;;;;;;4993129;28;20149;-47
2022/07/13 06:34:46;;;;;;;1.92;1.00;;;;;;;;;;4992756;28;20364;-52
2022/07/13 06:37:12;;;;;;;10.20;1.30;;;;;;;;;;4993153;28;20323;-48
2022/07/13 06:39:37;;;;;;;2.05;1.00;;;;;;;;;;4993077;28;20105;-47
2022/07/13 06:42:03;;;;;;;2.35;1.10;;;;;;;;;;4975552;28;20102;-46
2022/07/13 06:44:28;;;;;;;1.52;0.80;;;;;;;;;;4993091;28;20478;-47
2022/07/13 06:46:54;;;;;;;2.25;1.00;;;;;;;;;;4993024;28;20647;-48
2022/07/13 06:49:19;;;;;;;5.43;1.00;;;;;;;;;;4992728;28;20387;-47
2022/07/13 06:51:45;;;;;;;9.60;1.30;;;;;;;;;;4992714;28;20029;-45
2022/07/13 06:54:10;;;;;;;2.20;0.93;;;;;;;;;;4992673;28;20486;-47
2022/07/13 06:56:36;;;;;;;4.22;1.10;;;;;;;;;;4992484;28;20050;-45
2022/07/13 06:59:01;;;;;;;2.85;0.88;;;;;;;;;;4992929;28;20057;-48
2022/07/13 07:01:27;;;;;;;5.72;1.15;;;;;;;;;;4995142;28;20027;-49
2022/07/13 07:03:52;;;;;;;4.78;0.93;;;;;;;;;;4996505;28;20023;-50
2022/07/13 07:06:18;;;;;;;2.97;1.00;;;;;;;;;;4996397;28;20024;-48
2022/07/13 07:08:43;;;;;;;2.88;0.90;;;;;;;;;;4996696;28;20026;-48
2022/07/13 07:11:09;;;;;;;2.55;1.10;;;;;;;;;;4996570;28;20034;-49
2022/07/13 07:13:34;;;;;;;1.63;0.88;;;;;;;;;;4996542;28;20105;-50
2022/07/13 07:16:00;;;;;;;0.80;0.80;;;;;;;;;;4996519;28;20057;-46
2022/07/13 07:18:27;;;;;;;1.38;1.10;;;;;;;;;;4978841;28;20026;-50
2022/07/13 07:20:52;;;;;;;2.63;1.10;;;;;;;;;;4996194;28;20034;-51
2022/07/13 07:23:18;;;;;;;3.80;0.80;;;;;;;;;;4996161;28;20037;-51
2022/07/13 07:25:44;;;;;;;5.10;1.05;;;;;;;;;;4996147;28;20041;-51
2022/07/13 07:28:10;;;;;;;2.05;0.88;;;;;;;;;;4996146;28;20036;-47
2022/07/13 07:30:36;;;;;;;4.38;1.00;;;;;;;;;;4978530;28;20036;-50
2022/07/13 07:33:02;;;;;;;3.17;0.82;;;;;;;;;;4996338;28;20062;-50
2022/07/13 07:35:28;;;;;;;4.88;1.05;;;;;;;;;;4995911;28;20470;-50
2022/07/13 07:37:56;;;;;;;1.65;1.10;;;;;;;;;;4996114;28;20062;-48
2022/07/13 07:40:21;;;;;;;2.10;0.80;;;;;;;;;;4979301;28;20092;-50
2022/07/13 07:42:47;;;;;;;3.22;0.95;;;;;;;;;;4995852;28;20475;-48
2022/07/13 07:45:13;;;;;;;1.10;1.00;;;;;;;;;;4995878;28;20037;-48
2022/07/13 07:47:39;;;;;;;6.35;1.10;;;;;;;;;;4996063;28;20027;-50
2022/07/13 07:50:06;;;;;;;5.18;0.90;;;;;;;;;;4978382;28;20037;-50
2022/07/13 07:52:32;;;;;;;9.65;1.35;;;;;;;;;;4995734;28;20030;-49
2022/07/13 07:54:57;;;;;;;10.38;2.15;;;;;;;;;;4995526;28;20092;-48
2022/07/13 07:57:23;;;;;;;5.28;1.25;;;;;;;;;;4995357;28;20053;-48
2022/07/13 07:59:48;;;;;;;3.55;1.10;;;;;;;;;;4978126;28;20058;-50
2022/07/13 08:02:14;;;;;;;15.18;2.10;;;;;;;;;;4995523;28;20073;-50
2022/07/13 08:04:40;;;;;;;10.40;1.52;;;;;;;;;;4995465;28;20037;-50
2022/07/13 08:07:07;;;;;;;4.55;1.05;;;;;;;;;;4995657;28;20031;-48
2022/07/13 08:09:33;;;;;;;31.40;3.50;;;;;;;;;;4994703;28;20113;-50
2022/07/13 08:12:00;;;;;;;3.75;1.33;;;;;;;;;;4975888;28;20030;-48
2022/07/13 08:14:26;;;;;;;1.60;0.80;;;;;;;;;;4995160;28;20022;-49
2022/07/13 08:16:52;;;;;;;1.60;0.90;;;;;;;;;;4995432;28;20030;-50
2022/07/13 08:19:17;;;;;;;27.48;2.15;;;;;;;;;;4995361;28;20037;-49
2022/07/13 08:21:43;;;;;;;6.10;1.10;;;;;;;;;;4995355;28;20027;-52
2022/07/13 08:24:08;;;;;;;6.82;1.05;;;;;;;;;;4977698;28;20049;-48
2022/07/13 08:26:34;;;;;;;10.80;1.42;;;;;;;;;;4995303;28;20065;-48
2022/07/13 08:28:59;;;;;;;5.95;1.00;;;;;;;;;;4994878;28;20528;-48
2022/07/13 08:31:25;;;;;;;3.33;1.08;;;;;;;;;;4994944;28;20026;-48
2022/07/13 08:39:22;;;;;;;3.58;1.00;;;;;;;;;;4995047;28;20037;-48
2022/07/13 08:41:48;;;;;;;3.22;1.00;;;;;;;;;;4994954;28;20049;-50
2022/07/13 08:44:15;;;;;;;16.00;1.67;;;;;;;;;;4994654;28;20019;-48
2022/07/13 08:46:41;;;;;;;8.13;1.33;;;;;;;;;;4994899;28;20026;-48
2022/07/13 08:49:08;;;;;;;5.05;1.00;;;;;;;;;;4994789;28;20576;-49
2022/07/13 08:51:34;;;;;;;8.98;1.42;;;;;;;;;;4994490;28;20026;-44
2022/07/13 08:54:02;;;;;;;4.50;0.80;;;;;;;;;;4988513;28;20042;-49
2022/07/13 08:56:28;;;;;;;1.50;0.80;;;;;;;;;;4994071;28;20046;-48
2022/07/13 08:58:53;;;;;;;19.60;1.50;;;;;;;;;;4994678;28;20042;-44
2022/07/13 09:01:19;;;;;;;2.80;0.98;;;;;;;;;;4994337;28;20031;-47
2022/07/13 09:03:46;;;;;;;3.88;0.95;;;;;;;;;;4994598;28;20434;-45
2022/07/13 09:06:39;;;;;;;10.23;1.95;;;;;;;;;;4994254;28;20023;-48
2022/07/13 09:09:33;;;;;;;3.97;0.85;;;;;;;;;;4994432;28;20514;-49
2022/07/13 09:12:22;;;;;;;7.32;1.02;;;;;;;;;;4994045;28;20024;-50
2022/07/13 09:15:02;;;;;;;8.35;1.33;;;;;;;;;;4993943;28;20042;-48
2022/07/13 09:17:43;;;;;;;1.85;0.90;;;;;;;;;;4994411;28;20034;-50
2022/07/13 09:20:09;;;;;;;4.97;1.17;;;;;;;;;;4994274;28;20050;-50
2022/07/13 09:22:45;;;;;;;34.38;3.17;;;;;;;;;;4993967;28;20529;-46
2022/07/13 09:25:10;;;;;;;3.47;1.25;;;;;;;;;;4993619;28;20026;-51
2022/07/13 09:27:47;;;;;;;1.95;0.90;;;;;;;;;;4994173;28;20080;-47
2022/07/13 09:30:26;;;;;;;5.68;1.30;;;;;;;;;;4993866;28;20363;-48
2022/07/13 09:32:57;;;;;;;35.17;2.55;;;;;;;;;;4994120;28;20081;-49
2022/07/13 09:35:44;;;;;;;10.77;1.08;;;;;;;;;;4993910;28;20026;-48
2022/07/13 09:38:26;;;;;;;11.77;1.20;;;;;;;;;;4993977;28;20026;-45
2022/07/13 09:40:52;;;;;;;53.22;3.17;;;;;;;;;;4994007;28;20018;-48
2022/07/13 09:46:11;;;;;;;12.15;1.58;;;;;;;;;;4993970;28;20077;-42
2022/07/13 09:48:38;;;;;;;3.10;0.93;;;;;;;;;;4993732;28;20030;-43
2022/07/13 09:51:05;;;;;;;22.00;2.15;;;;;;;;;;4993430;28;20034;-43
2022/07/13 09:53:33;;;;;;;18.45;2.15;;;;;;;;;;4993779;28;20035;-44
2022/07/13 09:56:02;;;;;;;12.07;1.42;;;;;;;;;;4993305;28;20050;-48
2022/07/13 09:58:30;;;;;;;3.28;0.88;;;;;;;;;;4993282;28;20104;-45
2022/07/13 10:00:58;;;;;;;6.10;1.30;;;;;;;;;;4993569;28;20034;-45
2022/07/13 10:03:24;;;;;;;3.60;1.20;;;;;;;;;;4993191;28;20097;-46
2022/07/13 10:05:52;;;;;;;8.07;1.63;;;;;;;;;;4975750;28;20045;-48
2022/07/13 10:08:18;;;;;;;15.02;1.63;;;;;;;;;;4993265;28;20026;-42
2022/07/13 10:10:45;;;;;;;14.43;1.30;;;;;;;;;;4975563;28;20034;-44
2022/07/13 10:13:12;;;;;;;2.25;1.10;;;;;;;;;;4992901;28;20475;-45
2022/07/13 10:15:38;;;;;;;7.13;1.10;;;;;;;;;;4975594;28;20096;-45
2022/07/13 10:18:07;;;;;;;9.38;1.10;;;;;;;;;;4993287;28;20026;-47
2022/07/13 10:20:33;;;;;;;;;;;;;;;;;;4993358;28;20068;-43
2022/07/13 10:22:59;;;;;;;3.90;0.90;;;;;;;;;;4993072;28;19917;-42
2022/07/13 10:25:24;;;;;;;2.28;0.70;;;;;;;;;;4993062;28;20161;-47
2022/07/13 10:28:05;;;;;;;8.20;1.02;;;;;;;;;;4992977;28;20033;-44
2022/07/13 10:30:31;;;;;;;7.50;2.20;;;;;;;;;;4992921;28;20073;-44
2022/07/13 10:33:19;;;;;;;0.90;0.73;;;;;;;;;;4992824;28;20068;-41
2022/07/13 10:35:50;;;;;;;5.63;0.77;;;;;;;;;;4993891;28;20459;-43
2022/07/13 10:38:29;;;;;;;4.38;0.98;;;;;;;;;;4996943;28;20118;-44
2022/07/13 10:41:19;;;;;;;10.63;1.67;;;;;;;;;;4995721;28;20034;-43
2022/07/13 10:44:02;;;;;;;6.00;1.10;;;;;;;;;;4982530;28;20046;-45
2022/07/13 10:46:49;;;;;;;4.72;0.80;;;;;;;;;;4995243;28;20494;-43
2022/07/13 10:49:30;;;;;;;2.72;0.60;;;;;;;;;;4977666;28;20037;-41
2022/07/13 10:51:59;;;;;;;2.72;1.23;;;;;;;;;;4995329;28;20035;-43
2022/07/13 10:54:25;;;;;;;5.35;0.95;;;;;;;;;;4995007;28;20649;-44
2022/07/13 10:57:12;;;;;;;6.82;1.25;;;;;;;;;;4994867;28;20097;-43
2022/07/13 10:59:48;;;;;;;7.28;1.48;;;;;;;;;;4995162;28;20018;-43
2022/07/13 11:02:50;;;;;;;4.35;0.95;;;;;;;;;;4995235;28;20046;-41
2022/07/13 11:05:19;;;;;;;5.63;1.10;;;;;;;;;;4995085;28;20033;-44
2022/07/13 11:07:47;;;;;;;10.43;1.20;;;;;;;;;;4994775;28;20033;-41
2022/07/13 11:10:33;;;;;;;2.55;0.88;;;;;;;;;;4994751;28;20096;-46
2022/07/13 11:13:05;;;;;;;3.00;0.98;;;;;;;;;;4995009;28;20430;-46
2022/07/13 11:15:47;;;;;;;4.43;1.00;;;;;;;;;;4994681;28;20088;-46
2022/07/13 11:18:24;;;;;;;5.85;1.17;;;;;;;;;;4994723;28;20394;-43
2022/07/13 11:20:57;;;;;;;3.05;0.80;;;;;;;;;;4994679;28;20150;-44
2022/07/13 11:26:45;;;;;;;10.98;1.50;;;;;;;;;;4973608;28;20033;-46
2022/07/13 11:29:29;;;;;;;1.33;1.15;;;;;;;;;;4994437;28;20034;-41
2022/07/13 11:31:56;;;;;;;3.42;1.20;;;;;;;;;;4994531;28;20030;-46
2022/07/13 11:34:22;;;;;;;3.17;1.10;;;;;;;;;;4994612;28;20081;-43
2022/07/13 11:36:48;;;;;;;15.10;2.42;;;;;;;;;;4994454;28;20109;-47
2022/07/13 11:39:25;;;;;;;6.93;1.20;;;;;;;;;;4994211;28;20066;-44
2022/07/13 11:41:51;;;;;;;2.25;0.90;;;;;;;;;;4994377;28;20418;-46
2022/07/13 11:44:21;;;;;;;8.30;1.50;;;;;;;;;;4994229;28;20030;-43
2022/07/13 11:46:47;;;;;;;2.25;0.65;;;;;;;;;;4993702;28;20085;-44
2022/07/13 11:49:12;;;;;;;1.25;0.93;;;;;;;;;;4994469;28;20030;-44
2022/07/13 11:51:41;;;;;;;2.55;0.90;;;;;;;;;;4993998;28;20030;-42
2022/07/13 11:54:12;;;;;;;4.15;0.95;;;;;;;;;;4993979;28;20092;-46
2022/07/13 11:56:51;;;;;;;1.77;0.60;;;;;;;;;;4993927;28;20126;-43
2022/07/13 11:59:36;;;;;;;3.15;0.93;;;;;;;;;;4993961;28;20109;-45
2022/07/13 12:02:03;;;;;;;9.70;0.90;;;;;;;;;;4994143;28;20034;-43
2022/07/13 12:04:29;;;;;;;2.20;0.88;;;;;;;;;;4994006;28;20064;-45
2022/07/13 12:07:30;;;;;;;4.05;0.90;;;;;;;;;;4993858;28;20030;-45
2022/07/13 12:09:59;;;;;;;11.00;1.40;;;;;;;;;;4993955;28;20022;-42
2022/07/13 12:12:27;;;;;;;2.50;0.80;;;;;;;;;;4993993;28;20383;-45
2022/07/13 12:14:54;;;;;;;5.47;0.90;;;;;;;;;;4993837;28;20499;-46
2022/07/13 12:17:21;;;;;;;16.02;1.50;;;;;;;;;;4993560;28;20057;-42
2022/07/13 12:19:48;;;;;;;3.78;1.13;;;;;;;;;;4975904;28;20047;-44
2022/07/13 12:22:13;;;;;;;5.72;1.40;;;;;;;;;;4993541;28;20024;-42
2022/07/13 12:24:44;;;;;;;1.80;1.23;;;;;;;;;;4976146;28;20026;-43
2022/07/13 12:27:29;;;;;;;4.78;0.98;;;;;;;;;;4993317;28;20030;-43
2022/07/13 12:30:09;;;;;;;4.15;0.80;;;;;;;;;;4993390;28;20138;-43
2022/07/13 12:32:57;;;;;;;14.50;1.42;;;;;;;;;;4993344;28;20030;-41
2022/07/13 12:35:27;;;;;;;12.25;2.00;;;;;;;;;;4993080;28;20034;-46
2022/07/13 12:37:55;;;;;;;8.07;1.15;;;;;;;;;;4993512;28;20053;-43
2022/07/13 12:40:40;;;;;;;16.85;1.33;;;;;;;;;;4993149;28;20027;-41
2022/07/13 12:43:22;;;;;;;8.93;1.38;;;;;;;;;;4993187;28;20035;-43
2022/07/13 12:45:52;;;;;;;15.23;1.50;;;;;;;;;;4993415;28;20446;-42
2022/07/13 12:48:23;;;;;;;4.43;1.35;;;;;;;;;;4975780;28;20395;-43
2022/07/13 12:50:59;;;;;;;3.05;1.00;;;;;;;;;;4993282;28;20050;-45
2022/07/13 12:53:43;;;;;;;15.48;2.00;;;;;;;;;;4993433;28;20027;-45
2022/07/13 12:56:09;;;;;;;18.10;2.45;;;;;;;;;;4992670;28;20062;-42
2022/07/13 12:58:49;;;;;;;15.43;1.77;;;;;;;;;;4992197;28;20355;-44
2022/07/13 13:01:30;;;;;;;4.93;1.50;;;;;;;;;;4993104;28;20118;-42
2022/07/13 13:03:57;;;;;;;16.38;1.48;;;;;;;;;;4990956;28;20030;-46
2022/07/13 13:06:23;;;;;;;5.07;1.08;;;;;;;;;;4991162;28;20031;-44
2022/07/13 13:08:48;;;;;;;7.43;1.17;;;;;;;;;;4990907;28;20030;-41
2022/07/13 13:11:14;;;;;;;11.23;1.30;;;;;;;;;;4992319;28;20027;-41
2022/07/13 13:13:39;;;;;;;4.57;0.85;;;;;;;;;;4992820;28;20037;-40
2022/07/13 13:16:05;;;;;;;7.25;1.30;;;;;;;;;;4992460;28;20507;-44
2022/07/13 13:18:31;;;;;;;22.50;1.85;;;;;;;;;;4992492;28;20117;-46
2022/07/13 13:20:57;;;;;;;13.43;2.00;;;;;;;;;;4992625;28;20038;-44
2022/07/13 13:23:22;;;;;;;13.73;2.28;;;;;;;;;;4992735;28;20026;-42
2022/07/13 13:25:48;;;;;;;6.72;0.95;;;;;;;;;;4992481;28;20065;-42
2022/07/13 13:28:13;;;;;;;4.22;1.48;;;;;;;;;;4992573;28;20073;-46
2022/07/13 13:30:45;;;;;;;3.30;0.98;;;;;;;;;;4992453;28;20531;-45
2022/07/13 13:33:15;;;;;;;41.22;2.42;;;;;;;;;;4992312;28;20109;-42
2022/07/13 13:35:41;;;;;;;18.83;1.50;;;;;;;;;;4992103;28;20045;-47
2022/07/13 13:38:07;;;;;;;5.93;1.30;;;;;;;;;;4992092;28;20053;-43
2022/07/13 13:40:33;;;;;;;5.25;1.17;;;;;;;;;;4992007;28;20108;-40
2022/07/13 13:42:59;;;;;;;6.32;0.90;;;;;;;;;;4992083;28;20585;-44
2022/07/13 13:45:24;;;;;;;6.20;1.00;;;;;;;;;;4974434;28;20122;-46
2022/07/13 13:47:50;;;;;;;9.60;1.67;;;;;;;;;;4991965;28;20026;-44
2022/07/13 13:50:16;;;;;;;5.55;0.95;;;;;;;;;;4974464;28;20031;-42
2022/07/13 13:52:41;;;;;;;8.27;1.40;;;;;;;;;;4991575;28;20038;-46
2022/07/13 13:55:08;;;;;;;6.32;0.95;;;;;;;;;;4991719;28;20041;-42
2022/07/13 13:57:33;;;;;;;7.72;1.40;;;;;;;;;;4991709;28;20049;-41
2022/07/13 14:00:02;;;;;;;3.65;0.80;;;;;;;;;;4992015;28;20046;-44
2022/07/13 14:02:29;;;;;;;3.33;0.80;;;;;;;;;;4991577;28;20038;-41
2022/07/13 14:04:55;;;;;;;6.80;0.93;;;;;;;;;;4991589;28;20038;-42
2022/07/13 14:07:20;;;;;;;7.25;1.20;;;;;;;;;;4991511;28;20536;-43
2022/07/13 14:09:48;;;;;;;7.82;1.17;;;;;;;;;;4991845;28;20057;-42
2022/07/13 14:12:14;;;;;;;1.25;1.00;;;;;;;;;;4991614;28;20031;-42
2022/07/13 14:14:40;;;;;;;7.03;0.90;;;;;;;;;;4973949;28;20030;-46
2022/07/13 14:17:05;;;;;;;4.50;0.95;;;;;;;;;;4991714;28;20076;-42
2022/07/13 14:19:31;;;;;;;3.22;0.95;;;;;;;;;;4991759;28;20438;-45
2022/07/13 14:21:56;;;;;;;3.63;0.85;;;;;;;;;;4991571;28;20032;-45
2022/07/13 14:24:23;;;;;;;5.78;1.00;;;;;;;;;;4991408;28;20112;-42
2022/07/13 14:26:50;;;;;;;6.88;1.00;;;;;;;;;;4991396;28;20026;-46
2022/07/13 14:29:15;;;;;;;6.00;1.38;;;;;;;;;;4991505;28;20081;-45
2022/07/13 14:31:41;;;;;;;4.35;0.80;;;;;;;;;;4991593;28;20546;-42
2022/07/13 14:34:06;;;;;;;7.00;1.15;;;;;;;;;;4991499;28;20073;-42
2022/07/13 14:36:32;;;;;;;5.53;1.02;;;;;;;;;;4991643;28;20023;-41
2022/07/13 14:38:58;;;;;;;3.30;0.80;;;;;;;;;;4991254;28;20491;-43
2022/07/13 14:41:23;;;;;;;2.53;0.90;;;;;;;;;;4991344;28;20031;-44
2022/07/13 14:43:49;;;;;;;1.08;0.98;;;;;;;;;;4991461;28;20098;-44
2022/07/13 14:46:14;;;;;;;1.55;1.02;;;;;;;;;;4991275;28;20041;-44
2022/07/13 14:48:40;;;;;;;8.07;0.90;;;;;;;;;;4991202;28;20037;-42
2022/07/13 14:51:05;;;;;;;6.90;1.23;;;;;;;;;;4991390;28;20056;-46
2022/07/13 14:53:31;;;;;;;2.97;1.13;;;;;;;;;;4991307;28;20031;-43
2022/07/13 14:55:58;;;;;;;5.40;1.13;;;;;;;;;;4990921;28;20193;-47